createdAt,value
2018-08-17T00:00:45.501Z,19.63
2018-08-17T00:03:14.537Z,18.80
2018-08-17T00:05:43.626Z,19.23
2018-08-17T00:08:12.942Z,19.67
2018-08-17T00:10:42.090Z,19.90
2018-08-17T00:13:11.176Z,19.20
2018-08-17T00:15:40.559Z,17.70
2018-08-17T00:18:09.660Z,19.03
2018-08-17T00:20:38.771Z,19.00
2018-08-17T00:23:07.846Z,19.10
2018-08-17T00:25:36.960Z,19.10
2018-08-17T00:28:06.110Z,19.97
2018-08-17T00:30:35.167Z,19.23
2018-08-17T00:33:04.382Z,18.73
2018-08-17T00:35:33.428Z,18.67
2018-08-17T00:38:02.510Z,18.90
2018-08-17T00:40:31.521Z,18.67
2018-08-17T00:43:00.529Z,19.67
2018-08-17T00:45:29.837Z,19.53
2018-08-17T00:47:58.939Z,19.03
2018-08-17T00:50:28.251Z,18.10
2018-08-17T00:52:57.434Z,19.83
2018-08-17T00:55:26.504Z,21.23
2018-08-17T00:57:55.516Z,20.23
2018-08-17T01:00:24.617Z,20.20
2018-08-17T01:02:53.697Z,22.13
2018-08-17T01:05:23.647Z,21.27
2018-08-17T01:07:52.719Z,20.70
2018-08-17T01:10:21.734Z,20.00
2018-08-17T01:12:50.776Z,20.87
2018-08-17T01:15:20.885Z,20.40
2018-08-17T01:17:49.902Z,21.63
2018-08-17T01:20:19.049Z,21.67
2018-08-17T01:22:48.355Z,22.43
2018-08-17T01:25:17.425Z,21.37
2018-08-17T01:27:46.562Z,23.53
2018-08-17T01:30:15.629Z,21.17
2018-08-17T01:32:44.653Z,20.53
2018-08-17T01:35:13.722Z,20.70
2018-08-17T01:37:42.761Z,22.57
2018-08-17T01:40:11.814Z,22.23
2018-08-17T01:42:40.841Z,20.93
2018-08-17T01:45:09.962Z,21.00
2018-08-17T01:47:39.043Z,22.13
2018-08-17T01:50:08.343Z,22.63
2018-08-17T01:52:37.517Z,22.97
2018-08-17T01:55:08.200Z,22.83
2018-08-17T01:57:37.370Z,24.87
2018-08-17T02:00:08.366Z,25.53
2018-08-17T02:02:38.238Z,23.13
2018-08-17T02:05:07.738Z,22.70
2018-08-17T02:07:36.855Z,25.47
2018-08-17T02:10:07.984Z,23.77
2018-08-17T02:12:37.221Z,24.33
2018-08-17T02:15:06.264Z,24.30
2018-08-17T02:17:35.332Z,24.73
2018-08-17T02:20:04.853Z,24.53
2018-08-17T02:22:33.937Z,25.33
2018-08-17T02:25:03.025Z,26.07
2018-08-17T02:27:32.150Z,24.90
2018-08-17T02:30:01.214Z,26.47
2018-08-17T02:32:30.281Z,27.53
2018-08-17T02:34:59.366Z,26.53
2018-08-17T02:37:28.402Z,27.87
2018-08-17T02:39:57.433Z,27.13
2018-08-17T02:42:26.556Z,28.97
2018-08-17T02:44:55.664Z,28.03
2018-08-17T02:47:24.708Z,27.10
2018-08-17T02:49:53.755Z,27.83
2018-08-17T02:52:22.770Z,31.23
2018-08-17T02:54:51.899Z,27.87
2018-08-17T02:57:21.005Z,30.63
2018-08-17T02:59:49.588Z,29.63
2018-08-17T03:02:18.106Z,33.30
2018-08-17T03:04:47.168Z,34.27
2018-08-17T03:07:16.229Z,35.33
2018-08-17T03:09:45.303Z,34.70
2018-08-17T03:12:13.814Z,36.40
2018-08-17T03:14:42.870Z,37.10
2018-08-17T03:17:11.955Z,32.43
2018-08-17T03:19:41.013Z,37.30
2018-08-17T03:22:10.130Z,37.07
2018-08-17T03:24:39.510Z,36.47
2018-08-17T03:27:08.603Z,38.40
2018-08-17T03:29:37.674Z,35.33
2018-08-17T03:32:06.797Z,34.57
2018-08-17T03:34:35.895Z,33.73
2018-08-17T03:37:05.203Z,36.83
2018-08-17T03:39:34.214Z,34.00
2018-08-17T03:42:03.294Z,33.43
2018-08-17T03:44:32.338Z,34.40
2018-08-17T03:47:01.401Z,34.70
2018-08-17T03:49:30.459Z,34.37
2018-08-17T03:51:59.562Z,35.17
2018-08-17T03:54:28.573Z,33.33
2018-08-17T03:56:57.662Z,33.67
2018-08-17T03:59:26.704Z,33.50
2018-08-17T04:01:55.775Z,31.37
2018-08-17T04:04:24.894Z,31.23
2018-08-17T04:06:53.991Z,29.57
2018-08-17T04:09:23.018Z,28.40
2018-08-17T04:11:52.112Z,28.13
2018-08-17T04:14:21.206Z,26.40
2018-08-17T04:16:50.226Z,26.13
2018-08-17T04:19:19.285Z,25.17
2018-08-17T04:21:48.296Z,25.13
2018-08-17T04:24:17.420Z,22.63
2018-08-17T04:26:46.444Z,22.43
2018-08-17T04:29:15.496Z,21.07
2018-08-17T04:31:44.609Z,21.03
2018-08-17T04:34:13.816Z,20.77
2018-08-17T04:36:42.909Z,19.63
2018-08-17T04:39:11.953Z,19.40
2018-08-17T04:41:41.125Z,18.10
2018-08-17T04:44:10.250Z,17.57
2018-08-17T04:46:39.394Z,16.30
2018-08-17T04:49:08.585Z,17.00
2018-08-17T04:51:37.767Z,16.67
2018-08-17T04:54:06.989Z,15.20
2018-08-17T04:56:35.977Z,13.70
2018-08-17T04:59:05.021Z,14.43
2018-08-17T05:01:34.146Z,15.07
2018-08-17T05:04:03.206Z,15.00
2018-08-17T05:06:32.317Z,13.60
2018-08-17T05:09:01.413Z,14.30
2018-08-17T05:11:30.493Z,13.43
2018-08-17T05:13:59.550Z,13.03
2018-08-17T05:16:28.585Z,13.00
2018-08-17T05:18:57.641Z,11.67
2018-08-17T05:21:26.755Z,11.40
2018-08-17T05:23:55.785Z,11.73
2018-08-17T05:26:24.857Z,11.10
2018-08-17T05:28:53.922Z,11.97
2018-08-17T05:31:22.977Z,12.63
2018-08-17T05:33:52.152Z,10.80
2018-08-17T05:36:21.193Z,11.43
2018-08-17T05:38:50.206Z,9.63
2018-08-17T05:41:19.282Z,9.03
2018-08-17T05:43:48.289Z,7.67
2018-08-17T05:46:17.494Z,7.80
2018-08-17T05:48:46.514Z,7.23
2018-08-17T05:51:15.508Z,6.23
2018-08-17T05:53:44.552Z,6.97
2018-08-17T05:56:13.613Z,7.57
2018-08-17T05:58:42.723Z,7.70
2018-08-17T06:01:11.858Z,7.07
2018-08-17T06:03:41.161Z,7.93
2018-08-17T06:06:10.478Z,7.60
2018-08-17T06:08:39.590Z,8.37
2018-08-17T06:11:08.926Z,8.00
2018-08-17T06:13:37.880Z,14.73
2018-08-17T06:16:07.248Z,13.53
2018-08-17T06:18:36.430Z,11.30
2018-08-17T06:21:05.529Z,10.13
2018-08-17T06:23:34.591Z,11.60
2018-08-17T06:26:03.688Z,10.53
2018-08-17T06:28:32.757Z,11.13
2018-08-17T06:31:02.385Z,9.97
2018-08-17T06:33:31.479Z,9.50
2018-08-17T06:36:00.626Z,8.30
2018-08-17T06:38:29.705Z,6.97
2018-08-17T06:40:58.753Z,7.57
2018-08-17T06:43:27.782Z,7.50
2018-08-17T06:45:56.873Z,9.67
2018-08-17T06:48:25.953Z,9.60
2018-08-17T06:50:55.146Z,9.00
2018-08-17T06:53:24.106Z,8.87
2018-08-17T06:55:53.140Z,10.33
2018-08-17T06:58:22.197Z,9.70
2018-08-17T07:00:51.265Z,10.53
2018-08-17T07:03:20.335Z,10.00
2018-08-17T07:05:49.415Z,9.40
2018-08-17T07:08:18.428Z,8.43
2018-08-17T07:10:47.501Z,9.60
2018-08-17T07:13:16.535Z,9.57
2018-08-17T07:15:45.604Z,9.90
2018-08-17T07:18:14.617Z,8.73
2018-08-17T07:20:43.676Z,8.40
2018-08-17T07:23:12.729Z,8.03
2018-08-17T07:25:41.776Z,7.63
2018-08-17T07:28:10.869Z,8.20
2018-08-17T07:30:40.046Z,7.10
2018-08-17T07:33:09.157Z,7.23
2018-08-17T07:35:38.245Z,6.75
2018-08-17T07:38:07.348Z,6.42
2018-08-17T07:40:36.642Z,6.85
2018-08-17T07:43:05.694Z,5.72
2018-08-17T07:45:34.715Z,5.62
2018-08-17T07:48:03.937Z,5.40
2018-08-17T07:50:32.839Z,5.53
2018-08-17T07:53:01.884Z,5.50
2018-08-17T07:55:30.916Z,6.10
2018-08-17T07:57:59.941Z,7.50
2018-08-17T08:00:28.969Z,6.95
2018-08-17T08:02:58.016Z,7.90
2018-08-17T08:05:27.130Z,8.45
2018-08-17T08:07:56.157Z,8.47
2018-08-17T08:10:25.228Z,8.50
2018-08-17T08:12:54.309Z,9.83
2018-08-17T08:15:23.399Z,10.40
2018-08-17T08:17:52.418Z,9.87
2018-08-17T08:20:34.056Z,10.00
2018-08-17T08:23:14.287Z,9.43
2018-08-17T08:25:43.321Z,8.73
2018-08-17T08:28:12.386Z,10.80
2018-08-17T08:30:41.653Z,11.57
2018-08-17T08:33:10.777Z,12.50
2018-08-17T08:35:39.899Z,10.90
2018-08-17T08:38:09.260Z,11.40
2018-08-17T08:40:38.331Z,12.33
2018-08-17T08:43:07.575Z,12.97
2018-08-17T08:45:36.917Z,11.73
2018-08-17T08:48:06.705Z,12.60
2018-08-17T08:50:35.894Z,11.70
2018-08-17T08:53:05.022Z,13.47
2018-08-17T08:55:34.088Z,14.30
2018-08-17T08:58:03.154Z,14.60
2018-08-17T09:00:32.200Z,13.73
2018-08-17T09:03:01.246Z,13.07
2018-08-17T09:05:30.299Z,11.73
2018-08-17T09:07:59.343Z,11.97
2018-08-17T09:10:28.488Z,13.67
2018-08-17T09:12:57.514Z,13.18
2018-08-17T09:15:26.646Z,11.90
2018-08-17T09:17:55.753Z,12.70
2018-08-17T09:20:24.871Z,12.88
2018-08-17T09:22:53.849Z,13.78
2018-08-17T09:25:22.969Z,14.23
2018-08-17T09:27:51.970Z,13.65
2018-08-17T09:30:21.026Z,14.50
2018-08-17T09:32:50.048Z,13.72
2018-08-17T09:35:19.078Z,9.70
2018-08-17T09:37:48.099Z,6.78
2018-08-17T09:40:17.173Z,6.40
2018-08-17T09:42:46.197Z,9.93
2018-08-17T09:45:15.266Z,7.70
2018-08-17T09:47:44.304Z,7.15
2018-08-17T09:50:14.882Z,7.35
2018-08-17T09:52:44.033Z,8.50
2018-08-17T09:55:13.089Z,10.75
2018-08-17T09:57:42.161Z,8.38
2018-08-17T10:00:11.599Z,7.25
2018-08-17T10:02:45.786Z,7.60
2018-08-17T10:05:20.179Z,7.87
2018-08-17T10:07:54.601Z,7.85
2018-08-17T10:10:24.809Z,6.70
2018-08-17T10:12:53.949Z,6.95
2018-08-17T10:15:23.972Z,6.50
2018-08-17T10:17:53.001Z,5.42
2018-08-17T10:20:24.805Z,4.22
2018-08-17T10:22:54.542Z,3.90
2018-08-17T10:25:24.750Z,4.50
2018-08-17T10:27:57.763Z,3.72
2018-08-17T10:30:26.836Z,4.10
2018-08-17T10:32:57.173Z,4.30
2018-08-17T10:35:27.621Z,4.60
2018-08-17T10:37:59.868Z,4.00
2018-08-17T10:40:28.989Z,3.50
2018-08-17T10:42:59.440Z,3.30
2018-08-17T10:45:28.723Z,3.93
2018-08-17T10:47:58.286Z,4.27
2018-08-17T10:50:29.353Z,4.97
2018-08-17T10:52:59.689Z,6.20
2018-08-17T10:55:40.083Z,6.67
2018-08-17T10:58:11.533Z,6.20
2018-08-17T11:00:40.632Z,5.80
2018-08-17T11:03:09.777Z,5.73
2018-08-17T11:05:38.927Z,5.30
2018-08-17T11:08:08.040Z,5.30
2018-08-17T11:10:37.086Z,5.00
2018-08-17T11:13:06.236Z,5.03
2018-08-17T11:15:35.255Z,4.93
2018-08-17T11:18:04.314Z,5.83
2018-08-17T11:20:33.353Z,4.70
2018-08-17T11:23:02.367Z,5.63
2018-08-17T11:25:31.423Z,5.87
2018-08-17T11:28:00.425Z,6.70
2018-08-17T11:30:29.458Z,6.63
2018-08-17T11:32:58.522Z,6.53
2018-08-17T11:35:27.553Z,6.00
2018-08-17T11:37:56.596Z,6.00
2018-08-17T11:40:25.678Z,6.10
2018-08-17T11:42:54.701Z,6.90
2018-08-17T11:45:24.961Z,6.53
2018-08-17T11:47:54.744Z,6.30
2018-08-17T11:50:24.813Z,6.50
2018-08-17T11:52:56.725Z,5.60
2018-08-17T11:55:27.065Z,6.67
2018-08-17T11:57:56.365Z,6.43
2018-08-17T12:00:25.558Z,6.35
2018-08-17T12:02:54.655Z,6.25
2018-08-17T12:05:23.730Z,5.70
2018-08-17T12:07:52.729Z,5.60
2018-08-17T12:10:21.788Z,7.53
2018-08-17T12:12:50.809Z,6.90
2018-08-17T12:15:19.829Z,7.67
2018-08-17T12:17:48.829Z,7.57
2018-08-17T12:20:17.851Z,6.30
2018-08-17T12:22:46.859Z,7.80
2018-08-17T12:25:15.933Z,7.90
2018-08-17T12:27:53.007Z,7.63
2018-08-17T12:30:22.029Z,6.90
2018-08-17T12:32:51.038Z,7.70
2018-08-17T12:35:20.054Z,7.10
2018-08-17T12:37:57.251Z,7.43
2018-08-17T12:40:30.553Z,7.23
2018-08-17T12:42:59.735Z,8.33
2018-08-17T12:45:28.815Z,8.57
2018-08-17T12:47:57.836Z,8.40
2018-08-17T12:50:26.887Z,8.70
2018-08-17T12:52:56.009Z,8.63
2018-08-17T12:55:25.084Z,8.93
2018-08-17T12:57:54.113Z,9.10
2018-08-17T13:00:23.269Z,8.77
2018-08-17T13:02:52.745Z,8.27
2018-08-17T13:05:21.794Z,9.00
2018-08-17T13:07:50.799Z,9.30
2018-08-17T13:10:19.856Z,9.77
2018-08-17T13:12:55.137Z,10.03
2018-08-17T13:15:24.733Z,11.53
2018-08-17T13:17:53.754Z,10.27
2018-08-17T13:20:22.820Z,9.30
2018-08-17T13:22:51.895Z,9.33
2018-08-17T13:25:20.969Z,9.07
2018-08-17T13:27:49.950Z,8.50
2018-08-17T13:30:19.013Z,8.73
2018-08-17T13:32:48.041Z,8.50
2018-08-17T13:35:17.051Z,9.17
2018-08-17T13:37:46.072Z,8.50
2018-08-17T13:40:15.113Z,8.40
2018-08-17T13:42:44.150Z,8.40
2018-08-17T13:45:13.213Z,9.53
2018-08-17T13:47:42.253Z,9.30
2018-08-17T13:50:11.337Z,9.20
2018-08-17T13:52:40.439Z,8.10
2018-08-17T13:55:09.497Z,7.77
2018-08-17T13:57:38.598Z,7.33
2018-08-17T14:00:09.356Z,8.57
2018-08-17T14:02:38.427Z,8.03
2018-08-17T14:05:08.543Z,8.37
2018-08-17T14:07:37.886Z,8.27
2018-08-17T14:10:08.042Z,9.47
2018-08-17T14:12:37.709Z,10.27
2018-08-17T14:15:07.684Z,9.77
2018-08-17T14:17:37.230Z,8.23
2018-08-17T14:20:09.143Z,7.57
2018-08-17T14:22:38.291Z,8.05
2018-08-17T14:25:08.417Z,7.95
2018-08-17T14:27:37.474Z,7.85
2018-08-17T14:30:10.986Z,8.05
2018-08-17T14:32:40.213Z,7.03
2018-08-17T14:35:09.479Z,6.87
2018-08-17T14:37:38.505Z,6.95
2018-08-17T14:40:08.220Z,7.55
2018-08-17T14:42:37.265Z,7.62
2018-08-17T14:45:07.835Z,6.60
2018-08-17T14:47:37.164Z,6.17
2018-08-17T14:50:08.374Z,5.37
2018-08-17T14:52:37.514Z,6.50
2018-08-17T14:55:07.599Z,6.87
2018-08-17T14:57:38.906Z,7.25
2018-08-17T15:00:10.027Z,7.65
2018-08-17T15:02:39.220Z,6.92
2018-08-17T15:05:09.777Z,6.75
2018-08-17T15:07:39.026Z,6.53
2018-08-17T15:10:09.512Z,7.12
2018-08-17T15:12:38.804Z,6.87
2018-08-17T15:15:08.307Z,7.40
2018-08-17T15:17:43.981Z,7.40
2018-08-17T15:20:13.442Z,6.17
2018-08-17T15:22:42.758Z,5.83
2018-08-17T15:25:11.828Z,5.60
2018-08-17T15:27:40.954Z,5.00
2018-08-17T15:30:11.158Z,4.50
2018-08-17T15:32:40.985Z,4.47
2018-08-17T15:35:10.730Z,4.10
2018-08-17T15:37:40.182Z,4.03
2018-08-17T15:40:10.975Z,5.03
2018-08-17T15:42:40.434Z,4.50
2018-08-17T15:45:10.126Z,6.95
2018-08-17T15:47:39.194Z,5.70
2018-08-17T15:50:13.936Z,5.85
2018-08-17T15:52:43.257Z,6.15
2018-08-17T15:55:12.465Z,7.62
2018-08-17T15:57:41.649Z,7.67
2018-08-17T16:00:14.850Z,8.10
2018-08-17T16:02:43.959Z,8.67
2018-08-17T16:05:13.094Z,7.27
2018-08-17T16:07:42.238Z,6.53
2018-08-17T16:10:13.774Z,6.12
2018-08-17T16:12:42.881Z,5.80
2018-08-17T16:15:12.879Z,5.70
2018-08-17T16:17:41.951Z,5.50
2018-08-17T16:20:12.018Z,5.37
2018-08-17T16:22:41.993Z,5.70
2018-08-17T16:25:11.906Z,4.50
2018-08-17T16:27:41.681Z,4.93
2018-08-17T16:30:13.466Z,5.63
2018-08-17T16:32:42.701Z,5.37
2018-08-17T16:35:12.414Z,5.73
2018-08-17T16:37:48.509Z,5.77
2018-08-17T16:40:17.559Z,6.00
2018-08-17T16:42:50.408Z,5.43
2018-08-17T16:45:37.951Z,7.77
2018-08-17T16:48:08.251Z,6.73
2018-08-17T16:50:37.392Z,6.03
2018-08-17T16:53:06.500Z,6.37
2018-08-17T16:55:35.530Z,5.77
2018-08-17T16:58:04.576Z,6.70
2018-08-17T17:00:33.923Z,6.60
2018-08-17T17:03:02.917Z,6.33
2018-08-17T17:05:31.980Z,6.37
2018-08-17T17:08:01.955Z,5.90
2018-08-17T17:10:36.030Z,6.03
2018-08-17T17:13:07.022Z,6.23
2018-08-17T17:15:36.814Z,5.90
2018-08-17T17:18:08.201Z,5.83
2018-08-17T17:20:39.022Z,5.37
2018-08-17T17:23:10.349Z,5.93
2018-08-17T17:25:39.486Z,5.00
2018-08-17T17:28:08.822Z,4.47
2018-08-17T17:30:43.901Z,4.97
2018-08-17T17:33:13.074Z,4.50
2018-08-17T17:35:43.013Z,4.60
2018-08-17T17:38:12.445Z,4.30
2018-08-17T17:47:06.897Z,4.43
2018-08-17T17:49:39.368Z,4.93
2018-08-17T17:52:08.402Z,4.80
2018-08-17T17:54:37.454Z,5.13
2018-08-17T17:57:09.381Z,5.57
2018-08-17T17:59:43.264Z,5.13
2018-08-17T18:02:12.288Z,4.70
2018-08-17T18:04:41.386Z,4.07
2018-08-17T18:12:38.136Z,4.30
2018-08-17T18:15:07.247Z,4.13
2018-08-17T18:17:36.334Z,4.00
2018-08-17T18:20:05.570Z,4.07
2018-08-17T18:22:34.632Z,3.53
2018-08-17T18:25:23.049Z,3.50
2018-08-17T18:27:52.085Z,3.63
2018-08-17T18:30:21.134Z,3.47
2018-08-17T18:32:50.429Z,3.00
2018-08-17T18:35:19.685Z,3.90
2018-08-17T18:37:48.643Z,3.53
2018-08-17T18:40:17.722Z,3.00
2018-08-17T18:42:46.719Z,3.50
2018-08-17T18:45:15.788Z,3.03
2018-08-17T18:47:45.118Z,3.00
2018-08-17T18:50:14.141Z,3.13
2018-08-17T18:52:43.351Z,3.23
2018-08-17T18:55:12.436Z,3.53
2018-08-17T18:57:41.481Z,3.27
2018-08-17T19:00:12.415Z,2.83
2018-08-17T19:02:41.742Z,2.83
2018-08-17T19:05:11.263Z,3.07
2018-08-17T19:07:40.349Z,2.50
2018-08-17T19:10:10.093Z,3.00
2018-08-17T19:12:39.206Z,2.57
2018-08-17T19:15:10.637Z,3.23
2018-08-17T19:17:39.938Z,2.97
2018-08-17T19:20:10.416Z,2.97
2018-08-17T19:22:41.449Z,2.80
2018-08-17T19:25:11.714Z,2.60
2018-08-17T19:27:41.452Z,2.50
2018-08-17T19:30:23.925Z,2.57
2018-08-17T19:32:54.358Z,2.60
2018-08-17T19:35:23.518Z,2.70
2018-08-17T19:37:53.032Z,2.83
2018-08-17T19:40:22.601Z,2.87
2018-08-17T19:42:51.650Z,8.83
2018-08-17T19:45:21.086Z,3.80
2018-08-17T19:47:50.429Z,2.70
2018-08-17T19:50:19.477Z,2.70
2018-08-17T19:52:48.779Z,3.07
2018-08-17T19:55:17.865Z,3.20
2018-08-17T19:57:46.866Z,3.10
2018-08-17T20:00:16.171Z,3.20
2018-08-17T20:02:45.315Z,3.63
2018-08-17T20:05:14.424Z,3.77
2018-08-17T20:07:43.588Z,3.93
2018-08-17T20:10:13.750Z,3.27
2018-08-17T20:12:43.400Z,3.60
2018-08-17T20:15:12.436Z,3.50
2018-08-17T20:17:48.270Z,3.03
2018-08-17T20:20:17.342Z,3.87
2018-08-17T20:22:46.549Z,3.53
2018-08-17T20:25:16.937Z,3.40
2018-08-17T20:27:46.627Z,3.20
2018-08-17T20:30:19.630Z,3.80
2018-08-17T20:32:48.829Z,3.70
2018-08-17T20:35:18.580Z,3.60
2018-08-17T20:37:49.962Z,3.47
2018-08-17T20:40:19.302Z,3.33
2018-08-17T20:42:48.756Z,3.50
2018-08-17T20:45:17.922Z,4.07
2018-08-17T20:47:47.078Z,3.57
2018-08-17T20:50:17.460Z,4.20
2018-08-17T20:52:52.287Z,4.27
2018-08-17T20:55:21.436Z,4.40
2018-08-17T20:57:52.746Z,4.00
2018-08-17T21:00:22.943Z,4.00
2018-08-17T21:02:52.015Z,3.30
2018-08-17T21:05:21.449Z,3.80
2018-08-17T21:07:50.836Z,4.60
2018-08-17T21:10:20.123Z,4.03
2018-08-17T21:12:49.564Z,4.73
2018-08-17T21:15:19.063Z,4.40
2018-08-17T21:17:48.672Z,4.63
2018-08-17T21:20:17.907Z,4.80
2018-08-17T21:22:47.068Z,4.53
2018-08-17T21:25:16.159Z,4.10
2018-08-17T21:27:45.290Z,4.27
2018-08-17T21:30:14.423Z,4.73
2018-08-17T21:32:44.691Z,5.10
2018-08-17T21:35:13.845Z,4.50
2018-08-17T21:37:42.979Z,5.30
2018-08-17T21:40:23.686Z,4.43
2018-08-17T21:42:52.757Z,4.50
2018-08-17T21:45:21.838Z,4.50
2018-08-17T21:47:50.946Z,5.20
2018-08-17T21:50:20.119Z,4.40
2018-08-17T21:52:49.260Z,4.70
2018-08-17T21:55:18.346Z,4.87
2018-08-17T21:57:47.478Z,4.87
2018-08-17T22:00:22.434Z,5.17
2018-08-17T22:02:51.497Z,5.43
2018-08-17T22:05:38.859Z,5.10
2018-08-17T22:08:07.884Z,5.20
2018-08-17T22:10:36.998Z,4.60
2018-08-17T22:13:11.328Z,3.90
2018-08-17T22:15:40.511Z,4.67
2018-08-17T22:18:09.588Z,3.93
2018-08-17T22:20:38.702Z,4.63
2018-08-17T22:23:07.959Z,4.60
2018-08-17T22:25:37.123Z,4.47
2018-08-17T22:28:06.347Z,4.53
2018-08-17T22:30:35.507Z,5.17
2018-08-17T22:33:04.686Z,5.50
2018-08-17T22:35:33.999Z,5.10
2018-08-17T22:38:02.936Z,5.47
2018-08-17T22:40:32.016Z,5.30
2018-08-17T22:43:01.422Z,5.07
2018-08-17T22:45:30.608Z,5.37
2018-08-17T22:47:59.770Z,6.30
2018-08-17T22:50:28.853Z,5.70
2018-08-17T22:52:57.967Z,5.47
2018-08-17T22:55:26.998Z,5.63
2018-08-17T22:57:56.090Z,5.50
2018-08-17T23:00:27.480Z,5.67
2018-08-17T23:02:58.955Z,6.30
2018-08-17T23:05:29.420Z,6.00
2018-08-17T23:07:58.591Z,6.00
2018-08-17T23:10:28.802Z,6.27
2018-08-17T23:12:58.292Z,5.60
2018-08-17T23:15:27.497Z,5.63
2018-08-17T23:17:57.780Z,6.07
2018-08-17T23:20:32.249Z,5.70
2018-08-17T23:23:02.209Z,5.67
2018-08-17T23:25:31.525Z,5.57
2018-08-17T23:28:00.738Z,6.20
2018-08-17T23:30:29.890Z,5.53
2018-08-17T23:32:59.145Z,6.00
2018-08-17T23:35:28.326Z,6.30
2018-08-17T23:37:57.578Z,5.90
2018-08-17T23:40:26.720Z,5.97
2018-08-17T23:42:55.825Z,5.90
2018-08-17T23:45:25.049Z,6.50
2018-08-17T23:47:54.181Z,6.53
2018-08-17T23:50:23.333Z,6.27
2018-08-17T23:52:52.481Z,6.57
2018-08-17T23:55:21.619Z,5.77
2018-08-17T23:57:50.775Z,6.70
